sensor_id;sensor_type;location;lat;lon;timestamp;temperature;humidity
43520;DHT22;46848;51.980;5.918;2022-08-25T19:03:56;31.20;39.60
43520;DHT22;46848;51.980;5.918;2022-08-25T19:06:22;31.10;39.50
43520;DHT22;46848;51.980;5.918;2022-08-25T19:08:48;31.10;39.50
43520;DHT22;46848;51.980;5.918;2022-08-25T19:11:15;31.00;39.30
43520;DHT22;46848;51.980;5.918;2022-08-25T19:13:41;31.00;39.30
43520;DHT22;46848;51.980;5.918;2022-08-25T19:16:17;31.00;39.30
43520;DHT22;46848;51.980;5.918;2022-08-25T19:18:44;30.90;39.40
43520;DHT22;46848;51.980;5.918;2022-08-25T19:21:10;30.90;39.40
43520;DHT22;46848;51.980;5.918;2022-08-25T19:23:36;30.80;39.40
43520;DHT22;46848;51.980;5.918;2022-08-25T19:26:07;30.80;39.40
43520;DHT22;46848;51.980;5.918;2022-08-25T19:28:34;30.80;39.60
43520;DHT22;46848;51.980;5.918;2022-08-25T19:31:00;30.70;40.60
43520;DHT22;46848;51.980;5.918;2022-08-25T19:33:29;30.70;42.50
43520;DHT22;46848;51.980;5.918;2022-08-25T19:35:54;30.70;42.30
43520;DHT22;46848;51.980;5.918;2022-08-25T19:38:23;30.60;42.30
43520;DHT22;46848;51.980;5.918;2022-08-25T19:40:50;30.50;42.10
43520;DHT22;46848;51.980;5.918;2022-08-25T19:43:16;30.50;41.90
43520;DHT22;46848;51.980;5.918;2022-08-25T19:45:43;30.40;42.40
43520;DHT22;46848;51.980;5.918;2022-08-25T19:48:10;30.40;43.10
43520;DHT22;46848;51.980;5.918;2022-08-25T19:50:36;30.40;43.00
43520;DHT22;46848;51.980;5.918;2022-08-25T19:53:02;30.40;43.20
43520;DHT22;46848;51.980;5.918;2022-08-25T19:55:28;30.40;43.30
43520;DHT22;46848;51.980;5.918;2022-08-25T19:57:54;30.30;43.10
43520;DHT22;46848;51.980;5.918;2022-08-25T20:00:23;30.30;42.90
43520;DHT22;46848;51.980;5.918;2022-08-25T20:02:50;30.20;42.90
43520;DHT22;46848;51.980;5.918;2022-08-25T20:05:16;30.20;43.10
43520;DHT22;46848;51.980;5.918;2022-08-25T20:07:44;30.20;43.30
43520;DHT22;46848;51.980;5.918;2022-08-25T20:10:11;30.00;43.30
43520;DHT22;46848;51.980;5.918;2022-08-25T20:12:37;30.00;43.70
43520;DHT22;46848;51.980;5.918;2022-08-25T20:15:05;30.00;44.00
43520;DHT22;46848;51.980;5.918;2022-08-25T20:17:31;29.90;44.10
43520;DHT22;46848;51.980;5.918;2022-08-25T20:19:59;29.90;44.40
43520;DHT22;46848;51.980;5.918;2022-08-25T20:22:28;29.80;44.60
43520;DHT22;46848;51.980;5.918;2022-08-25T20:24:56;29.70;44.90
43520;DHT22;46848;51.980;5.918;2022-08-25T20:27:31;29.70;45.20
43520;DHT22;46848;51.980;5.918;2022-08-25T20:29:57;29.60;45.70
43520;DHT22;46848;51.980;5.918;2022-08-25T20:32:24;29.50;45.80
43520;DHT22;46848;51.980;5.918;2022-08-25T20:34:52;29.60;46.10
43520;DHT22;46848;51.980;5.918;2022-08-25T20:37:18;29.50;46.30
43520;DHT22;46848;51.980;5.918;2022-08-25T20:39:44;29.50;46.50
43520;DHT22;46848;51.980;5.918;2022-08-25T20:42:09;29.40;46.70
43520;DHT22;46848;51.980;5.918;2022-08-25T20:44:36;29.30;46.90
43520;DHT22;46848;51.980;5.918;2022-08-25T20:47:05;29.20;47.30
43520;DHT22;46848;51.980;5.918;2022-08-25T20:49:32;29.20;47.60
43520;DHT22;46848;51.980;5.918;2022-08-25T20:51:58;29.10;48.10
43520;DHT22;46848;51.980;5.918;2022-08-25T20:54:26;29.00;48.50
43520;DHT22;46848;51.980;5.918;2022-08-25T20:56:52;29.00;48.90
43520;DHT22;46848;51.980;5.918;2022-08-25T20:59:20;28.90;49.30
43520;DHT22;46848;51.980;5.918;2022-08-25T21:01:46;28.80;49.60
43520;DHT22;46848;51.980;5.918;2022-08-25T21:04:14;28.80;50.00
43520;DHT22;46848;51.980;5.918;2022-08-25T21:06:41;28.70;50.40
43520;DHT22;46848;51.980;5.918;2022-08-25T21:09:09;28.60;50.70
43520;DHT22;46848;51.980;5.918;2022-08-25T21:11:36;28.60;51.10
43520;DHT22;46848;51.980;5.918;2022-08-25T21:14:03;28.60;51.40
43520;DHT22;46848;51.980;5.918;2022-08-25T21:16:29;28.50;51.60
43520;DHT22;46848;51.980;5.918;2022-08-25T21:18:55;28.50;52.00
43520;DHT22;46848;51.980;5.918;2022-08-25T21:21:21;28.40;52.30
43520;DHT22;46848;51.980;5.918;2022-08-25T21:23:48;28.40;52.60
43520;DHT22;46848;51.980;5.918;2022-08-25T21:26:16;28.30;52.80
43520;DHT22;46848;51.980;5.918;2022-08-25T21:28:42;28.30;53.10
43520;DHT22;46848;51.980;5.918;2022-08-25T21:31:08;28.20;53.30
43520;DHT22;46848;51.980;5.918;2022-08-25T21:33:34;28.10;53.70
43520;DHT22;46848;51.980;5.918;2022-08-25T21:36:00;28.10;53.90
43520;DHT22;46848;51.980;5.918;2022-08-25T21:38:27;28.00;54.10
43520;DHT22;46848;51.980;5.918;2022-08-25T21:40:54;28.00;55.00
43520;DHT22;46848;51.980;5.918;2022-08-25T21:43:22;27.90;54.50
43520;DHT22;46848;51.980;5.918;2022-08-25T21:45:48;27.90;54.70
43520;DHT22;46848;51.980;5.918;2022-08-25T21:48:14;27.90;54.90
43520;DHT22;46848;51.980;5.918;2022-08-25T21:50:40;27.90;55.20
43520;DHT22;46848;51.980;5.918;2022-08-25T21:53:06;27.80;55.40
43520;DHT22;46848;51.980;5.918;2022-08-25T21:55:37;27.80;55.60
43520;DHT22;46848;51.980;5.918;2022-08-25T21:58:03;27.70;55.70
43520;DHT22;46848;51.980;5.918;2022-08-25T22:00:29;27.70;55.80
43520;DHT22;46848;51.980;5.918;2022-08-25T22:02:55;27.60;55.90
43520;DHT22;46848;51.980;5.918;2022-08-25T22:05:21;27.60;56.10
43520;DHT22;46848;51.980;5.918;2022-08-25T22:07:46;27.50;56.10
43520;DHT22;46848;51.980;5.918;2022-08-25T22:10:12;27.50;56.30
43520;DHT22;46848;51.980;5.918;2022-08-25T22:12:38;27.40;56.50
43520;DHT22;46848;51.980;5.918;2022-08-25T22:15:04;27.40;56.70
43520;DHT22;46848;51.980;5.918;2022-08-25T22:17:31;27.30;56.70
43520;DHT22;46848;51.980;5.918;2022-08-25T22:19:57;27.30;56.90
43520;DHT22;46848;51.980;5.918;2022-08-25T22:22:23;27.30;57.10
43520;DHT22;46848;51.980;5.918;2022-08-25T22:24:50;27.20;57.20
43520;DHT22;46848;51.980;5.918;2022-08-25T22:27:16;27.10;57.30
43520;DHT22;46848;51.980;5.918;2022-08-25T22:29:41;27.10;57.50
43520;DHT22;46848;51.980;5.918;2022-08-25T22:32:08;27.10;57.70
43520;DHT22;46848;51.980;5.918;2022-08-25T22:34:34;27.00;57.90
43520;DHT22;46848;51.980;5.918;2022-08-25T22:37:01;27.00;58.30
43520;DHT22;46848;51.980;5.918;2022-08-25T22:39:28;26.90;58.50
43520;DHT22;46848;51.980;5.918;2022-08-25T22:41:54;26.90;58.70
43520;DHT22;46848;51.980;5.918;2022-08-25T22:44:19;26.90;58.80
43520;DHT22;46848;51.980;5.918;2022-08-25T22:46:45;26.80;58.90
43520;DHT22;46848;51.980;5.918;2022-08-25T22:49:10;26.80;59.00
43520;DHT22;46848;51.980;5.918;2022-08-25T22:51:36;26.80;59.30
43520;DHT22;46848;51.980;5.918;2022-08-25T22:54:02;26.70;59.40
43520;DHT22;46848;51.980;5.918;2022-08-25T22:56:33;26.70;59.70
43520;DHT22;46848;51.980;5.918;2022-08-25T22:59:02;26.60;60.00
43520;DHT22;46848;51.980;5.918;2022-08-25T23:01:29;26.50;60.20
43520;DHT22;46848;51.980;5.918;2022-08-25T23:03:56;26.50;61.20
43520;DHT22;46848;51.980;5.918;2022-08-25T23:06:23;26.40;60.80
43520;DHT22;46848;51.980;5.918;2022-08-25T23:08:50;26.40;61.10
43520;DHT22;46848;51.980;5.918;2022-08-25T23:11:17;26.40;61.30
43520;DHT22;46848;51.980;5.918;2022-08-25T23:13:43;26.30;61.50
43520;DHT22;46848;51.980;5.918;2022-08-25T23:16:10;26.30;61.70
43520;DHT22;46848;51.980;5.918;2022-08-25T23:18:37;26.30;61.80
43520;DHT22;46848;51.980;5.918;2022-08-25T23:21:04;26.30;62.00
43520;DHT22;46848;51.980;5.918;2022-08-25T23:23:48;26.30;62.10
43520;DHT22;46848;51.980;5.918;2022-08-25T23:26:14;26.30;62.20
43520;DHT22;46848;51.980;5.918;2022-08-25T23:28:42;26.30;62.30
43520;DHT22;46848;51.980;5.918;2022-08-25T23:31:10;26.20;62.40
43520;DHT22;46848;51.980;5.918;2022-08-25T23:33:36;26.20;62.60
43520;DHT22;46848;51.980;5.918;2022-08-25T23:36:08;26.20;62.80
43520;DHT22;46848;51.980;5.918;2022-08-25T23:38:39;26.10;62.90
43520;DHT22;46848;51.980;5.918;2022-08-25T23:41:09;26.10;63.00
43520;DHT22;46848;51.980;5.918;2022-08-25T23:43:35;26.10;63.10
43520;DHT22;46848;51.980;5.918;2022-08-25T23:46:01;26.00;63.20
43520;DHT22;46848;51.980;5.918;2022-08-25T23:48:27;26.00;63.40
43520;DHT22;46848;51.980;5.918;2022-08-25T23:50:53;25.90;63.40
43520;DHT22;46848;51.980;5.918;2022-08-25T23:53:19;25.80;63.50
43520;DHT22;46848;51.980;5.918;2022-08-25T23:55:48;25.80;63.70
43520;DHT22;46848;51.980;5.918;2022-08-25T23:58:14;25.80;63.90
